Batavia, Ohio
Current Conditions -  °F | °C
As of 5:53 AM on Friday 28 Nov 2014 (Local Time) from KLUK Reporting Station
Overcast Overcast  
Wind Chill: 20°   Ceiling: 3700
Heat Index: 27°   Visibility: 10mi
Dew Point: 18°   Wind: 6mph
Humidity: 69%   Direction: 230°SW
Pressure: 30.42"   Gusts: NA
Location:  39.08°N, 84.18°W
Report Text: KLUK 281053Z AUTO 23005KT 10SM OVC037 M03/M08 A3042 RMK AO2 SLP306 T10281078
Loading
Personal Weather Stations






























Interactive Weather Map New forecast layout! Learn more

10-Day Weather Forecast

Advertisements
Track Severe Weather on mobile